sensor_id;sensor_type;location;lat;lon;timestamp;P1;durP1;ratioP1;P2;durP2;ratioP2
76826;SDS011;65788;52.284;20.890;2023-04-06T00:00:35;5.00;;;3.00;;
76826;SDS011;65788;52.284;20.890;2023-04-06T00:03:15;4.30;;;2.80;;
76826;SDS011;65788;52.284;20.890;2023-04-06T00:05:42;4.50;;;2.80;;
76826;SDS011;65788;52.284;20.890;2023-04-06T00:08:09;5.50;;;3.20;;
76826;SDS011;65788;52.284;20.890;2023-04-06T00:10:37;5.10;;;3.00;;
76826;SDS011;65788;52.284;20.890;2023-04-06T00:13:04;4.10;;;2.60;;
76826;SDS011;65788;52.284;20.890;2023-04-06T00:15:32;4.20;;;2.50;;
76826;SDS011;65788;52.284;20.890;2023-04-06T00:17:59;5.50;;;2.90;;
76826;SDS011;65788;52.284;20.890;2023-04-06T00:20:27;6.20;;;2.80;;
76826;SDS011;65788;52.284;20.890;2023-04-06T00:22:54;4.80;;;2.80;;
76826;SDS011;65788;52.284;20.890;2023-04-06T00:25:21;5.60;;;2.80;;
76826;SDS011;65788;52.284;20.890;2023-04-06T00:27:49;5.10;;;2.90;;
76826;SDS011;65788;52.284;20.890;2023-04-06T00:30:16;5.30;;;2.70;;
76826;SDS011;65788;52.284;20.890;2023-04-06T00:32:44;5.10;;;2.70;;
76826;SDS011;65788;52.284;20.890;2023-04-06T00:35:11;4.90;;;2.80;;
76826;SDS011;65788;52.284;20.890;2023-04-06T00:37:38;4.50;;;2.60;;
76826;SDS011;65788;52.284;20.890;2023-04-06T00:40:05;5.30;;;2.80;;
76826;SDS011;65788;52.284;20.890;2023-04-06T00:42:33;4.20;;;2.70;;
76826;SDS011;65788;52.284;20.890;2023-04-06T00:45:01;5.40;;;3.30;;
76826;SDS011;65788;52.284;20.890;2023-04-06T00:49:56;6.00;;;3.00;;
76826;SDS011;65788;52.284;20.890;2023-04-06T00:52:23;4.60;;;3.10;;
76826;SDS011;65788;52.284;20.890;2023-04-06T00:54:50;4.10;;;2.60;;
76826;SDS011;65788;52.284;20.890;2023-04-06T00:57:18;4.70;;;2.40;;
76826;SDS011;65788;52.284;20.890;2023-04-06T00:59:45;4.80;;;2.80;;
76826;SDS011;65788;52.284;20.890;2023-04-06T01:02:13;4.10;;;2.60;;
76826;SDS011;65788;52.284;20.890;2023-04-06T01:04:40;4.20;;;2.90;;
76826;SDS011;65788;52.284;20.890;2023-04-06T01:07:08;4.50;;;2.60;;
76826;SDS011;65788;52.284;20.890;2023-04-06T01:09:35;3.60;;;2.30;;
76826;SDS011;65788;52.284;20.890;2023-04-06T01:12:02;6.50;;;2.70;;
76826;SDS011;65788;52.284;20.890;2023-04-06T01:14:30;4.00;;;2.60;;
76826;SDS011;65788;52.284;20.890;2023-04-06T01:16:57;5.20;;;2.80;;
76826;SDS011;65788;52.284;20.890;2023-04-06T01:19:26;4.30;;;2.70;;
76826;SDS011;65788;52.284;20.890;2023-04-06T01:21:54;5.00;;;3.40;;
76826;SDS011;65788;52.284;20.890;2023-04-06T01:24:21;4.90;;;2.60;;
76826;SDS011;65788;52.284;20.890;2023-04-06T01:26:48;5.70;;;2.90;;
76826;SDS011;65788;52.284;20.890;2023-04-06T01:29:18;4.40;;;2.80;;
76826;SDS011;65788;52.284;20.890;2023-04-06T01:31:45;4.20;;;3.00;;
76826;SDS011;65788;52.284;20.890;2023-04-06T01:34:12;5.30;;;3.00;;
76826;SDS011;65788;52.284;20.890;2023-04-06T01:36:39;5.30;;;3.20;;
76826;SDS011;65788;52.284;20.890;2023-04-06T01:39:06;4.50;;;3.10;;
76826;SDS011;65788;52.284;20.890;2023-04-06T01:41:33;5.10;;;3.50;;
76826;SDS011;65788;52.284;20.890;2023-04-06T01:44:00;5.40;;;3.80;;
76826;SDS011;65788;52.284;20.890;2023-04-06T01:46:28;5.50;;;3.10;;
76826;SDS011;65788;52.284;20.890;2023-04-06T01:48:54;5.00;;;3.20;;
76826;SDS011;65788;52.284;20.890;2023-04-06T01:51:21;4.60;;;3.10;;
76826;SDS011;65788;52.284;20.890;2023-04-06T01:53:48;5.10;;;3.10;;
76826;SDS011;65788;52.284;20.890;2023-04-06T01:56:16;5.50;;;3.30;;
76826;SDS011;65788;52.284;20.890;2023-04-06T01:58:42;6.00;;;3.30;;
76826;SDS011;65788;52.284;20.890;2023-04-06T02:01:09;5.20;;;3.40;;
76826;SDS011;65788;52.284;20.890;2023-04-06T02:03:37;5.10;;;3.20;;
76826;SDS011;65788;52.284;20.890;2023-04-06T02:06:03;5.00;;;3.20;;
76826;SDS011;65788;52.284;20.890;2023-04-06T02:08:33;6.00;;;4.00;;
76826;SDS011;65788;52.284;20.890;2023-04-06T02:11:00;5.40;;;3.60;;
76826;SDS011;65788;52.284;20.890;2023-04-06T02:13:27;4.90;;;3.20;;
76826;SDS011;65788;52.284;20.890;2023-04-06T02:15:54;5.40;;;3.30;;
76826;SDS011;65788;52.284;20.890;2023-04-06T02:18:21;4.70;;;3.20;;
76826;SDS011;65788;52.284;20.890;2023-04-06T02:20:48;4.70;;;3.20;;
76826;SDS011;65788;52.284;20.890;2023-04-06T02:23:15;5.50;;;3.30;;
76826;SDS011;65788;52.284;20.890;2023-04-06T02:25:43;4.60;;;2.90;;
76826;SDS011;65788;52.284;20.890;2023-04-06T02:28:10;5.90;;;3.80;;
76826;SDS011;65788;52.284;20.890;2023-04-06T02:30:37;5.10;;;3.30;;
76826;SDS011;65788;52.284;20.890;2023-04-06T02:33:04;4.90;;;3.40;;
76826;SDS011;65788;52.284;20.890;2023-04-06T02:35:31;5.50;;;3.40;;
76826;SDS011;65788;52.284;20.890;2023-04-06T02:37:58;5.40;;;3.40;;
76826;SDS011;65788;52.284;20.890;2023-04-06T02:40:25;5.90;;;3.80;;
76826;SDS011;65788;52.284;20.890;2023-04-06T02:42:52;7.40;;;3.30;;
76826;SDS011;65788;52.284;20.890;2023-04-06T02:45:19;5.90;;;3.20;;
76826;SDS011;65788;52.284;20.890;2023-04-06T02:47:46;5.70;;;3.90;;
76826;SDS011;65788;52.284;20.890;2023-04-06T02:50:13;5.50;;;3.50;;
76826;SDS011;65788;52.284;20.890;2023-04-06T02:52:41;5.00;;;3.40;;
76826;SDS011;65788;52.284;20.890;2023-04-06T02:55:08;5.10;;;3.30;;
76826;SDS011;65788;52.284;20.890;2023-04-06T02:57:35;5.70;;;3.60;;
76826;SDS011;65788;52.284;20.890;2023-04-06T03:00:02;6.60;;;3.70;;
76826;SDS011;65788;52.284;20.890;2023-04-06T03:02:30;5.50;;;3.60;;
76826;SDS011;65788;52.284;20.890;2023-04-06T03:04:57;6.70;;;3.80;;
76826;SDS011;65788;52.284;20.890;2023-04-06T03:07:26;6.00;;;4.00;;
76826;SDS011;65788;52.284;20.890;2023-04-06T03:09:53;6.00;;;3.80;;
76826;SDS011;65788;52.284;20.890;2023-04-06T03:12:19;5.60;;;3.40;;
76826;SDS011;65788;52.284;20.890;2023-04-06T03:14:47;5.90;;;3.80;;
76826;SDS011;65788;52.284;20.890;2023-04-06T03:17:16;7.00;;;3.40;;
76826;SDS011;65788;52.284;20.890;2023-04-06T03:19:43;6.10;;;3.80;;
76826;SDS011;65788;52.284;20.890;2023-04-06T03:22:10;7.10;;;3.80;;
76826;SDS011;65788;52.284;20.890;2023-04-06T03:24:37;5.60;;;3.60;;
76826;SDS011;65788;52.284;20.890;2023-04-06T03:27:04;7.80;;;3.90;;
76826;SDS011;65788;52.284;20.890;2023-04-06T03:29:31;7.10;;;3.80;;
76826;SDS011;65788;52.284;20.890;2023-04-06T03:31:58;6.50;;;3.60;;
76826;SDS011;65788;52.284;20.890;2023-04-06T03:34:25;6.40;;;3.60;;
76826;SDS011;65788;52.284;20.890;2023-04-06T03:36:52;6.70;;;3.70;;
76826;SDS011;65788;52.284;20.890;2023-04-06T03:39:19;7.50;;;4.00;;
76826;SDS011;65788;52.284;20.890;2023-04-06T03:41:46;7.40;;;4.20;;
76826;SDS011;65788;52.284;20.890;2023-04-06T03:44:13;7.80;;;4.20;;
76826;SDS011;65788;52.284;20.890;2023-04-06T03:46:40;6.00;;;3.70;;
76826;SDS011;65788;52.284;20.890;2023-04-06T03:49:07;6.80;;;4.00;;
76826;SDS011;65788;52.284;20.890;2023-04-06T03:51:33;7.40;;;4.50;;
76826;SDS011;65788;52.284;20.890;2023-04-06T03:54:00;6.90;;;4.10;;
76826;SDS011;65788;52.284;20.890;2023-04-06T03:56:28;7.60;;;4.10;;
76826;SDS011;65788;52.284;20.890;2023-04-06T03:58:55;7.00;;;4.20;;
76826;SDS011;65788;52.284;20.890;2023-04-06T04:01:24;8.00;;;4.40;;
76826;SDS011;65788;52.284;20.890;2023-04-06T04:03:51;7.30;;;4.10;;
76826;SDS011;65788;52.284;20.890;2023-04-06T04:06:18;7.30;;;4.20;;
76826;SDS011;65788;52.284;20.890;2023-04-06T04:08:46;10.30;;;4.70;;
76826;SDS011;65788;52.284;20.890;2023-04-06T04:11:13;8.00;;;4.40;;
76826;SDS011;65788;52.284;20.890;2023-04-06T04:13:40;9.50;;;4.60;;
76826;SDS011;65788;52.284;20.890;2023-04-06T04:16:07;6.70;;;4.40;;
76826;SDS011;65788;52.284;20.890;2023-04-06T04:18:34;6.70;;;4.20;;
76826;SDS011;65788;52.284;20.890;2023-04-06T04:21:01;8.60;;;4.70;;
76826;SDS011;65788;52.284;20.890;2023-04-06T04:23:28;8.30;;;4.90;;
76826;SDS011;65788;52.284;20.890;2023-04-06T04:25:55;6.70;;;4.40;;
76826;SDS011;65788;52.284;20.890;2023-04-06T04:28:22;7.60;;;4.50;;
76826;SDS011;65788;52.284;20.890;2023-04-06T04:30:49;7.10;;;4.00;;
76826;SDS011;65788;52.284;20.890;2023-04-06T04:33:16;6.80;;;4.30;;
76826;SDS011;65788;52.284;20.890;2023-04-06T04:35:43;7.60;;;4.70;;
76826;SDS011;65788;52.284;20.890;2023-04-06T04:38:10;7.30;;;4.70;;
76826;SDS011;65788;52.284;20.890;2023-04-06T04:40:37;8.70;;;5.00;;
76826;SDS011;65788;52.284;20.890;2023-04-06T04:43:04;8.80;;;4.60;;
76826;SDS011;65788;52.284;20.890;2023-04-06T04:45:30;8.60;;;5.20;;
76826;SDS011;65788;52.284;20.890;2023-04-06T04:47:57;7.90;;;4.60;;
76826;SDS011;65788;52.284;20.890;2023-04-06T04:50:24;9.30;;;4.40;;
76826;SDS011;65788;52.284;20.890;2023-04-06T04:52:51;9.30;;;5.20;;
76826;SDS011;65788;52.284;20.890;2023-04-06T04:55:18;8.20;;;4.90;;
76826;SDS011;65788;52.284;20.890;2023-04-06T04:57:48;8.00;;;4.90;;
76826;SDS011;65788;52.284;20.890;2023-04-06T05:02:46;8.20;;;4.80;;
76826;SDS011;65788;52.284;20.890;2023-04-06T05:05:13;8.20;;;4.40;;
76826;SDS011;65788;52.284;20.890;2023-04-06T05:07:40;9.90;;;5.30;;
76826;SDS011;65788;52.284;20.890;2023-04-06T05:10:07;7.90;;;4.70;;
76826;SDS011;65788;52.284;20.890;2023-04-06T05:12:35;7.70;;;4.80;;
76826;SDS011;65788;52.284;20.890;2023-04-06T05:15:02;8.30;;;4.90;;
76826;SDS011;65788;52.284;20.890;2023-04-06T05:17:32;7.00;;;4.80;;
76826;SDS011;65788;52.284;20.890;2023-04-06T05:19:59;10.70;;;5.60;;
76826;SDS011;65788;52.284;20.890;2023-04-06T05:22:26;8.50;;;4.40;;
76826;SDS011;65788;52.284;20.890;2023-04-06T05:24:53;7.30;;;4.70;;
76826;SDS011;65788;52.284;20.890;2023-04-06T05:27:20;9.10;;;4.40;;
76826;SDS011;65788;52.284;20.890;2023-04-06T05:29:47;8.40;;;4.80;;
76826;SDS011;65788;52.284;20.890;2023-04-06T05:32:14;6.90;;;4.30;;
76826;SDS011;65788;52.284;20.890;2023-04-06T05:34:41;6.30;;;4.30;;
76826;SDS011;65788;52.284;20.890;2023-04-06T05:37:08;9.00;;;4.60;;
76826;SDS011;65788;52.284;20.890;2023-04-06T05:39:35;6.70;;;4.20;;
76826;SDS011;65788;52.284;20.890;2023-04-06T05:42:03;7.40;;;4.40;;
76826;SDS011;65788;52.284;20.890;2023-04-06T05:44:32;6.80;;;4.00;;
76826;SDS011;65788;52.284;20.890;2023-04-06T05:46:59;6.90;;;4.10;;
76826;SDS011;65788;52.284;20.890;2023-04-06T05:49:26;7.70;;;4.20;;
76826;SDS011;65788;52.284;20.890;2023-04-06T05:51:53;9.00;;;4.40;;
76826;SDS011;65788;52.284;20.890;2023-04-06T05:54:19;7.10;;;4.40;;
76826;SDS011;65788;52.284;20.890;2023-04-06T05:56:47;6.80;;;4.20;;
76826;SDS011;65788;52.284;20.890;2023-04-06T05:59:15;7.10;;;4.50;;
76826;SDS011;65788;52.284;20.890;2023-04-06T06:01:42;9.00;;;4.50;;
76826;SDS011;65788;52.284;20.890;2023-04-06T06:04:08;7.80;;;4.00;;
76826;SDS011;65788;52.284;20.890;2023-04-06T06:06:36;7.20;;;4.30;;
76826;SDS011;65788;52.284;20.890;2023-04-06T06:09:03;7.90;;;4.30;;
76826;SDS011;65788;52.284;20.890;2023-04-06T06:11:31;6.90;;;4.20;;
76826;SDS011;65788;52.284;20.890;2023-04-06T06:13:59;7.00;;;4.30;;
76826;SDS011;65788;52.284;20.890;2023-04-06T06:16:26;7.70;;;4.30;;
76826;SDS011;65788;52.284;20.890;2023-04-06T06:18:53;7.90;;;4.30;;
76826;SDS011;65788;52.284;20.890;2023-04-06T06:21:20;8.50;;;4.60;;
76826;SDS011;65788;52.284;20.890;2023-04-06T06:23:47;8.10;;;4.10;;
76826;SDS011;65788;52.284;20.890;2023-04-06T06:26:15;6.80;;;3.70;;
76826;SDS011;65788;52.284;20.890;2023-04-06T06:28:43;7.50;;;4.40;;
76826;SDS011;65788;52.284;20.890;2023-04-06T06:31:10;6.50;;;3.90;;
76826;SDS011;65788;52.284;20.890;2023-04-06T06:33:37;7.20;;;3.90;;
76826;SDS011;65788;52.284;20.890;2023-04-06T06:36:04;6.60;;;3.70;;
76826;SDS011;65788;52.284;20.890;2023-04-06T06:38:31;8.20;;;4.20;;
76826;SDS011;65788;52.284;20.890;2023-04-06T06:40:58;9.10;;;4.40;;
76826;SDS011;65788;52.284;20.890;2023-04-06T06:43:25;7.00;;;3.60;;
76826;SDS011;65788;52.284;20.890;2023-04-06T06:45:52;8.60;;;4.40;;
76826;SDS011;65788;52.284;20.890;2023-04-06T06:48:19;8.00;;;4.30;;
76826;SDS011;65788;52.284;20.890;2023-04-06T06:50:47;9.30;;;4.50;;
76826;SDS011;65788;52.284;20.890;2023-04-06T06:53:14;11.80;;;5.10;;
76826;SDS011;65788;52.284;20.890;2023-04-06T06:55:42;13.00;;;4.40;;
76826;SDS011;65788;52.284;20.890;2023-04-06T06:58:10;11.60;;;5.00;;
76826;SDS011;65788;52.284;20.890;2023-04-06T07:00:37;11.10;;;5.10;;
76826;SDS011;65788;52.284;20.890;2023-04-06T07:03:04;10.90;;;4.90;;
76826;SDS011;65788;52.284;20.890;2023-04-06T07:05:31;11.80;;;4.70;;
76826;SDS011;65788;52.284;20.890;2023-04-06T07:07:58;13.60;;;5.40;;
76826;SDS011;65788;52.284;20.890;2023-04-06T07:10:25;13.40;;;5.40;;
76826;SDS011;65788;52.284;20.890;2023-04-06T07:12:53;11.60;;;5.40;;
76826;SDS011;65788;52.284;20.890;2023-04-06T07:15:20;12.30;;;5.20;;
76826;SDS011;65788;52.284;20.890;2023-04-06T07:17:47;11.70;;;5.10;;
76826;SDS011;65788;52.284;20.890;2023-04-06T07:20:15;15.40;;;5.80;;
76826;SDS011;65788;52.284;20.890;2023-04-06T07:22:42;8.30;;;4.30;;
76826;SDS011;65788;52.284;20.890;2023-04-06T07:25:11;11.10;;;4.50;;
76826;SDS011;65788;52.284;20.890;2023-04-06T07:27:38;13.20;;;4.80;;
76826;SDS011;65788;52.284;20.890;2023-04-06T07:30:06;13.60;;;4.70;;
76826;SDS011;65788;52.284;20.890;2023-04-06T07:32:34;10.60;;;4.40;;
76826;SDS011;65788;52.284;20.890;2023-04-06T07:35:02;13.70;;;5.00;;
76826;SDS011;65788;52.284;20.890;2023-04-06T07:37:30;8.60;;;4.50;;
76826;SDS011;65788;52.284;20.890;2023-04-06T07:39:56;10.10;;;3.90;;
76826;SDS011;65788;52.284;20.890;2023-04-06T07:42:23;10.40;;;4.70;;
76826;SDS011;65788;52.284;20.890;2023-04-06T07:44:50;13.10;;;4.60;;
76826;SDS011;65788;52.284;20.890;2023-04-06T07:47:17;9.20;;;4.40;;
76826;SDS011;65788;52.284;20.890;2023-04-06T07:49:44;11.30;;;4.00;;
76826;SDS011;65788;52.284;20.890;2023-04-06T07:52:11;10.50;;;4.10;;
76826;SDS011;65788;52.284;20.890;2023-04-06T07:54:40;7.30;;;3.90;;
76826;SDS011;65788;52.284;20.890;2023-04-06T07:57:10;9.50;;;4.00;;
76826;SDS011;65788;52.284;20.890;2023-04-06T07:59:36;8.40;;;4.30;;
76826;SDS011;65788;52.284;20.890;2023-04-06T08:02:03;8.40;;;3.80;;
76826;SDS011;65788;52.284;20.890;2023-04-06T08:04:30;8.50;;;4.00;;
76826;SDS011;65788;52.284;20.890;2023-04-06T08:06:57;8.20;;;4.10;;
76826;SDS011;65788;52.284;20.890;2023-04-06T08:09:26;6.50;;;3.60;;
76826;SDS011;65788;52.284;20.890;2023-04-06T08:11:55;7.50;;;3.90;;
76826;SDS011;65788;52.284;20.890;2023-04-06T08:14:22;8.80;;;3.90;;
76826;SDS011;65788;52.284;20.890;2023-04-06T08:16:49;11.40;;;3.90;;
76826;SDS011;65788;52.284;20.890;2023-04-06T08:19:19;8.30;;;3.80;;
76826;SDS011;65788;52.284;20.890;2023-04-06T08:21:46;9.10;;;3.90;;
76826;SDS011;65788;52.284;20.890;2023-04-06T08:24:14;5.30;;;3.10;;
76826;SDS011;65788;52.284;20.890;2023-04-06T08:26:45;11.80;;;4.10;;
76826;SDS011;65788;52.284;20.890;2023-04-06T08:29:13;8.10;;;3.80;;
76826;SDS011;65788;52.284;20.890;2023-04-06T08:31:42;6.10;;;3.10;;
76826;SDS011;65788;52.284;20.890;2023-04-06T08:34:09;6.00;;;3.20;;
76826;SDS011;65788;52.284;20.890;2023-04-06T08:36:36;7.00;;;3.20;;
76826;SDS011;65788;52.284;20.890;2023-04-06T08:39:03;7.70;;;3.50;;
76826;SDS011;65788;52.284;20.890;2023-04-06T08:41:32;5.90;;;2.80;;
76826;SDS011;65788;52.284;20.890;2023-04-06T08:43:59;6.40;;;3.50;;
76826;SDS011;65788;52.284;20.890;2023-04-06T08:46:29;7.50;;;3.20;;
76826;SDS011;65788;52.284;20.890;2023-04-06T08:49:01;8.70;;;3.50;;
76826;SDS011;65788;52.284;20.890;2023-04-06T08:51:29;5.60;;;3.10;;
76826;SDS011;65788;52.284;20.890;2023-04-06T08:53:59;6.70;;;3.20;;
76826;SDS011;65788;52.284;20.890;2023-04-06T08:56:27;8.10;;;3.60;;
76826;SDS011;65788;52.284;20.890;2023-04-06T08:58:55;7.00;;;3.40;;
76826;SDS011;65788;52.284;20.890;2023-04-06T09:01:23;5.10;;;3.30;;
76826;SDS011;65788;52.284;20.890;2023-04-06T09:03:56;6.60;;;3.10;;
76826;SDS011;65788;52.284;20.890;2023-04-06T09:06:24;5.70;;;3.30;;
76826;SDS011;65788;52.284;20.890;2023-04-06T09:08:55;6.20;;;3.50;;
76826;SDS011;65788;52.284;20.890;2023-04-06T09:11:23;5.80;;;2.90;;
76826;SDS011;65788;52.284;20.890;2023-04-06T09:13:52;6.60;;;3.40;;
76826;SDS011;65788;52.284;20.890;2023-04-06T09:16:20;6.30;;;2.90;;
76826;SDS011;65788;52.284;20.890;2023-04-06T09:18:49;7.40;;;3.20;;
76826;SDS011;65788;52.284;20.890;2023-04-06T09:21:17;5.00;;;2.90;;
76826;SDS011;65788;52.284;20.890;2023-04-06T09:23:57;5.00;;;2.80;;
76826;SDS011;65788;52.284;20.890;2023-04-06T09:26:28;5.40;;;2.50;;
76826;SDS011;65788;52.284;20.890;2023-04-06T09:28:57;9.00;;;3.30;;
76826;SDS011;65788;52.284;20.890;2023-04-06T09:31:28;6.90;;;3.30;;
76826;SDS011;65788;52.284;20.890;2023-04-06T09:33:59;6.00;;;2.80;;
76826;SDS011;65788;52.284;20.890;2023-04-06T09:36:30;7.30;;;2.70;;
76826;SDS011;65788;52.284;20.890;2023-04-06T09:39:01;6.20;;;3.00;;
76826;SDS011;65788;52.284;20.890;2023-04-06T09:41:30;7.60;;;3.00;;
76826;SDS011;65788;52.284;20.890;2023-04-06T09:44:09;5.80;;;2.80;;
76826;SDS011;65788;52.284;20.890;2023-04-06T09:46:39;6.00;;;2.70;;
76826;SDS011;65788;52.284;20.890;2023-04-06T09:54:07;5.50;;;2.90;;
76826;SDS011;65788;52.284;20.890;2023-04-06T09:59:12;7.80;;;3.00;;
76826;SDS011;65788;52.284;20.890;2023-04-06T10:01:43;7.40;;;3.00;;
76826;SDS011;65788;52.284;20.890;2023-04-06T10:06:59;5.90;;;2.90;;
76826;SDS011;65788;52.284;20.890;2023-04-06T10:09:28;4.50;;;2.70;;
76826;SDS011;65788;52.284;20.890;2023-04-06T10:12:05;7.80;;;2.90;;
76826;SDS011;65788;52.284;20.890;2023-04-06T10:14:33;5.80;;;2.80;;
76826;SDS011;65788;52.284;20.890;2023-04-06T10:17:04;6.60;;;3.10;;
76826;SDS011;65788;52.284;20.890;2023-04-06T10:19:37;6.40;;;2.90;;
76826;SDS011;65788;52.284;20.890;2023-04-06T10:22:12;5.20;;;2.70;;
76826;SDS011;65788;52.284;20.890;2023-04-06T10:24:50;6.10;;;2.70;;
76826;SDS011;65788;52.284;20.890;2023-04-06T10:27:26;5.80;;;2.60;;
76826;SDS011;65788;52.284;20.890;2023-04-06T10:30:00;4.80;;;2.60;;
76826;SDS011;65788;52.284;20.890;2023-04-06T10:32:38;5.70;;;3.10;;
76826;SDS011;65788;52.284;20.890;2023-04-06T10:35:09;4.80;;;2.30;;
76826;SDS011;65788;52.284;20.890;2023-04-06T10:37:48;4.80;;;2.50;;
76826;SDS011;65788;52.284;20.890;2023-04-06T10:40:22;6.60;;;2.60;;
76826;SDS011;65788;52.284;20.890;2023-04-06T10:42:52;4.50;;;2.40;;
76826;SDS011;65788;52.284;20.890;2023-04-06T10:47:54;6.00;;;2.60;;
76826;SDS011;65788;52.284;20.890;2023-04-06T10:50:23;4.30;;;2.60;;
76826;SDS011;65788;52.284;20.890;2023-04-06T10:53:01;4.40;;;2.40;;
76826;SDS011;65788;52.284;20.890;2023-04-06T10:55:29;5.00;;;2.40;;
76826;SDS011;65788;52.284;20.890;2023-04-06T11:00:24;6.50;;;2.60;;
76826;SDS011;65788;52.284;20.890;2023-04-06T11:02:58;4.50;;;2.20;;
76826;SDS011;65788;52.284;20.890;2023-04-06T11:05:26;5.00;;;2.50;;
76826;SDS011;65788;52.284;20.890;2023-04-06T11:07:53;6.70;;;2.70;;
76826;SDS011;65788;52.284;20.890;2023-04-06T11:10:21;6.10;;;2.50;;
76826;SDS011;65788;52.284;20.890;2023-04-06T11:12:55;4.20;;;2.50;;
76826;SDS011;65788;52.284;20.890;2023-04-06T11:15:23;5.50;;;2.80;;
76826;SDS011;65788;52.284;20.890;2023-04-06T11:17:50;4.10;;;2.50;;
76826;SDS011;65788;52.284;20.890;2023-04-06T11:20:16;4.20;;;2.40;;
76826;SDS011;65788;52.284;20.890;2023-04-06T11:22:49;4.40;;;2.30;;
76826;SDS011;65788;52.284;20.890;2023-04-06T11:25:19;3.70;;;2.10;;
76826;SDS011;65788;52.284;20.890;2023-04-06T11:27:47;3.90;;;2.20;;
76826;SDS011;65788;52.284;20.890;2023-04-06T11:30:17;3.80;;;1.90;;
76826;SDS011;65788;52.284;20.890;2023-04-06T11:32:47;3.70;;;2.20;;
76826;SDS011;65788;52.284;20.890;2023-04-06T11:35:21;5.40;;;2.70;;
76826;SDS011;65788;52.284;20.890;2023-04-06T11:37:49;3.70;;;2.00;;
76826;SDS011;65788;52.284;20.890;2023-04-06T11:40:21;4.10;;;2.20;;
76826;SDS011;65788;52.284;20.890;2023-04-06T11:42:52;4.30;;;2.50;;
76826;SDS011;65788;52.284;20.890;2023-04-06T11:45:22;4.40;;;2.40;;
76826;SDS011;65788;52.284;20.890;2023-04-06T11:50:33;5.20;;;2.30;;
76826;SDS011;65788;52.284;20.890;2023-04-06T11:55:29;4.80;;;2.50;;
76826;SDS011;65788;52.284;20.890;2023-04-06T11:58:03;3.90;;;2.40;;
76826;SDS011;65788;52.284;20.890;2023-04-06T12:00:30;5.70;;;2.70;;
76826;SDS011;65788;52.284;20.890;2023-04-06T12:03:01;4.60;;;2.30;;
76826;SDS011;65788;52.284;20.890;2023-04-06T12:05:28;3.60;;;2.10;;
76826;SDS011;65788;52.284;20.890;2023-04-06T12:07:54;4.40;;;2.40;;
76826;SDS011;65788;52.284;20.890;2023-04-06T12:10:22;3.70;;;2.20;;
76826;SDS011;65788;52.284;20.890;2023-04-06T12:12:48;3.90;;;2.30;;
76826;SDS011;65788;52.284;20.890;2023-04-06T12:15:15;4.90;;;2.30;;
76826;SDS011;65788;52.284;20.890;2023-04-06T12:17:44;4.50;;;2.30;;
76826;SDS011;65788;52.284;20.890;2023-04-06T12:20:11;4.10;;;2.30;;
76826;SDS011;65788;52.284;20.890;2023-04-06T12:22:38;4.10;;;2.50;;
76826;SDS011;65788;52.284;20.890;2023-04-06T12:25:06;3.60;;;2.20;;
76826;SDS011;65788;52.284;20.890;2023-04-06T12:27:35;3.90;;;2.10;;
76826;SDS011;65788;52.284;20.890;2023-04-06T12:30:02;3.70;;;2.10;;
76826;SDS011;65788;52.284;20.890;2023-04-06T12:32:29;3.90;;;2.30;;
76826;SDS011;65788;52.284;20.890;2023-04-06T12:34:56;3.60;;;1.80;;
76826;SDS011;65788;52.284;20.890;2023-04-06T12:37:23;5.30;;;2.80;;
76826;SDS011;65788;52.284;20.890;2023-04-06T12:39:50;4.80;;;2.10;;
76826;SDS011;65788;52.284;20.890;2023-04-06T12:42:17;5.50;;;1.90;;
76826;SDS011;65788;52.284;20.890;2023-04-06T12:44:44;3.70;;;2.10;;
76826;SDS011;65788;52.284;20.890;2023-04-06T12:47:10;3.90;;;2.00;;
76826;SDS011;65788;52.284;20.890;2023-04-06T12:49:37;4.60;;;2.40;;
76826;SDS011;65788;52.284;20.890;2023-04-06T12:52:04;4.60;;;2.40;;
76826;SDS011;65788;52.284;20.890;2023-04-06T12:54:34;3.60;;;2.30;;
76826;SDS011;65788;52.284;20.890;2023-04-06T12:57:01;4.30;;;2.30;;
76826;SDS011;65788;52.284;20.890;2023-04-06T12:59:28;3.80;;;2.30;;
76826;SDS011;65788;52.284;20.890;2023-04-06T13:02:01;4.80;;;2.10;;
76826;SDS011;65788;52.284;20.890;2023-04-06T13:04:28;4.50;;;2.50;;
76826;SDS011;65788;52.284;20.890;2023-04-06T13:06:54;3.00;;;2.00;;
76826;SDS011;65788;52.284;20.890;2023-04-06T13:09:22;4.80;;;2.90;;
76826;SDS011;65788;52.284;20.890;2023-04-06T13:11:49;4.40;;;2.40;;
76826;SDS011;65788;52.284;20.890;2023-04-06T13:14:15;3.90;;;2.10;;
76826;SDS011;65788;52.284;20.890;2023-04-06T13:16:43;5.20;;;2.70;;
76826;SDS011;65788;52.284;20.890;2023-04-06T13:19:10;4.30;;;2.20;;
76826;SDS011;65788;52.284;20.890;2023-04-06T13:21:37;3.70;;;2.10;;
76826;SDS011;65788;52.284;20.890;2023-04-06T13:24:05;4.60;;;2.50;;
76826;SDS011;65788;52.284;20.890;2023-04-06T13:26:32;3.70;;;2.20;;
76826;SDS011;65788;52.284;20.890;2023-04-06T13:28:59;4.60;;;2.10;;
76826;SDS011;65788;52.284;20.890;2023-04-06T13:31:28;3.60;;;2.10;;
76826;SDS011;65788;52.284;20.890;2023-04-06T13:33:55;5.10;;;2.60;;
76826;SDS011;65788;52.284;20.890;2023-04-06T13:36:22;4.00;;;2.30;;
76826;SDS011;65788;52.284;20.890;2023-04-06T13:38:49;4.30;;;2.40;;
76826;SDS011;65788;52.284;20.890;2023-04-06T13:41:23;3.10;;;2.10;;
76826;SDS011;65788;52.284;20.890;2023-04-06T13:43:52;3.80;;;2.10;;
76826;SDS011;65788;52.284;20.890;2023-04-06T13:46:19;3.70;;;2.30;;
76826;SDS011;65788;52.284;20.890;2023-04-06T13:48:46;5.10;;;1.90;;
76826;SDS011;65788;52.284;20.890;2023-04-06T13:51:14;3.60;;;2.20;;
76826;SDS011;65788;52.284;20.890;2023-04-06T13:53:42;3.70;;;2.40;;
76826;SDS011;65788;52.284;20.890;2023-04-06T13:56:09;3.10;;;1.90;;
76826;SDS011;65788;52.284;20.890;2023-04-06T13:58:36;3.30;;;2.10;;
76826;SDS011;65788;52.284;20.890;2023-04-06T14:01:06;3.20;;;2.00;;
76826;SDS011;65788;52.284;20.890;2023-04-06T14:03:36;2.90;;;1.90;;
76826;SDS011;65788;52.284;20.890;2023-04-06T14:06:09;3.60;;;2.10;;
76826;SDS011;65788;52.284;20.890;2023-04-06T14:08:37;4.40;;;2.10;;
76826;SDS011;65788;52.284;20.890;2023-04-06T14:11:04;4.50;;;2.20;;
76826;SDS011;65788;52.284;20.890;2023-04-06T14:13:31;3.10;;;2.00;;
76826;SDS011;65788;52.284;20.890;2023-04-06T14:15:57;3.60;;;2.10;;
76826;SDS011;65788;52.284;20.890;2023-04-06T14:18:24;3.30;;;2.00;;
76826;SDS011;65788;52.284;20.890;2023-04-06T14:20:55;4.40;;;2.00;;
76826;SDS011;65788;52.284;20.890;2023-04-06T14:23:22;3.20;;;1.90;;
76826;SDS011;65788;52.284;20.890;2023-04-06T14:26:00;3.20;;;2.00;;
76826;SDS011;65788;52.284;20.890;2023-04-06T14:28:34;4.00;;;2.20;;
76826;SDS011;65788;52.284;20.890;2023-04-06T14:31:02;5.00;;;1.90;;
76826;SDS011;65788;52.284;20.890;2023-04-06T14:33:38;4.50;;;2.20;;
76826;SDS011;65788;52.284;20.890;2023-04-06T14:36:06;3.30;;;1.90;;
76826;SDS011;65788;52.284;20.890;2023-04-06T14:38:34;3.60;;;2.00;;
76826;SDS011;65788;52.284;20.890;2023-04-06T14:41:02;3.60;;;2.20;;
76826;SDS011;65788;52.284;20.890;2023-04-06T14:43:29;3.40;;;1.90;;
76826;SDS011;65788;52.284;20.890;2023-04-06T14:45:59;4.20;;;2.10;;
76826;SDS011;65788;52.284;20.890;2023-04-06T14:48:27;4.30;;;2.30;;
76826;SDS011;65788;52.284;20.890;2023-04-06T14:50:55;4.30;;;2.40;;
76826;SDS011;65788;52.284;20.890;2023-04-06T14:53:23;3.30;;;2.10;;
76826;SDS011;65788;52.284;20.890;2023-04-06T14:55:51;3.40;;;2.10;;
76826;SDS011;65788;52.284;20.890;2023-04-06T14:58:19;3.00;;;1.80;;
76826;SDS011;65788;52.284;20.890;2023-04-06T15:00:47;3.20;;;2.10;;
76826;SDS011;65788;52.284;20.890;2023-04-06T15:03:15;3.90;;;1.80;;